sensor_id;sensor_type;location;lat;lon;timestamp;P1;durP1;ratioP1;P2;durP2;ratioP2
59458;SDS011;45269;43.568;22.244;2023-09-12T00:00:54;6.40;;;4.30;;
59458;SDS011;45269;43.568;22.244;2023-09-12T00:03:20;6.00;;;4.93;;
59458;SDS011;45269;43.568;22.244;2023-09-12T00:05:52;6.88;;;4.90;;
59458;SDS011;45269;43.568;22.244;2023-09-12T00:08:18;6.05;;;4.18;;
59458;SDS011;45269;43.568;22.244;2023-09-12T00:10:43;5.88;;;4.20;;
59458;SDS011;45269;43.568;22.244;2023-09-12T00:13:09;5.68;;;3.92;;
59458;SDS011;45269;43.568;22.244;2023-09-12T00:15:34;8.98;;;4.78;;
59458;SDS011;45269;43.568;22.244;2023-09-12T00:17:59;6.65;;;4.78;;
59458;SDS011;45269;43.568;22.244;2023-09-12T00:20:25;6.85;;;4.55;;
59458;SDS011;45269;43.568;22.244;2023-09-12T00:22:50;8.07;;;4.57;;
59458;SDS011;45269;43.568;22.244;2023-09-12T00:25:16;8.15;;;4.18;;
59458;SDS011;45269;43.568;22.244;2023-09-12T00:27:41;5.07;;;4.57;;
59458;SDS011;45269;43.568;22.244;2023-09-12T00:30:06;6.28;;;4.05;;
59458;SDS011;45269;43.568;22.244;2023-09-12T00:32:32;4.88;;;4.07;;
59458;SDS011;45269;43.568;22.244;2023-09-12T00:34:57;8.88;;;5.00;;
59458;SDS011;45269;43.568;22.244;2023-09-12T00:37:22;12.45;;;5.00;;
59458;SDS011;45269;43.568;22.244;2023-09-12T00:39:48;7.28;;;4.85;;
59458;SDS011;45269;43.568;22.244;2023-09-12T00:42:13;5.43;;;4.40;;
59458;SDS011;45269;43.568;22.244;2023-09-12T00:44:38;6.43;;;4.53;;
59458;SDS011;45269;43.568;22.244;2023-09-12T00:47:04;6.57;;;4.38;;
59458;SDS011;45269;43.568;22.244;2023-09-12T00:49:29;6.57;;;4.80;;
59458;SDS011;45269;43.568;22.244;2023-09-12T00:51:55;7.70;;;5.07;;
59458;SDS011;45269;43.568;22.244;2023-09-12T00:54:21;6.72;;;4.30;;
59458;SDS011;45269;43.568;22.244;2023-09-12T00:56:47;4.65;;;4.20;;
59458;SDS011;45269;43.568;22.244;2023-09-12T00:59:13;6.40;;;4.22;;
59458;SDS011;45269;43.568;22.244;2023-09-12T01:01:39;5.25;;;4.47;;
59458;SDS011;45269;43.568;22.244;2023-09-12T01:04:04;5.65;;;4.47;;
59458;SDS011;45269;43.568;22.244;2023-09-12T01:06:30;5.10;;;4.60;;
59458;SDS011;45269;43.568;22.244;2023-09-12T01:08:57;7.40;;;4.57;;
59458;SDS011;45269;43.568;22.244;2023-09-12T01:11:22;5.25;;;4.55;;
59458;SDS011;45269;43.568;22.244;2023-09-12T01:13:48;6.65;;;4.97;;
59458;SDS011;45269;43.568;22.244;2023-09-12T01:16:13;7.95;;;4.55;;
59458;SDS011;45269;43.568;22.244;2023-09-12T01:18:38;6.22;;;5.07;;
59458;SDS011;45269;43.568;22.244;2023-09-12T01:24:03;5.35;;;4.13;;
59458;SDS011;45269;43.568;22.244;2023-09-12T01:29:11;5.72;;;4.40;;
59458;SDS011;45269;43.568;22.244;2023-09-12T01:31:38;5.28;;;4.57;;
59458;SDS011;45269;43.568;22.244;2023-09-12T01:34:08;7.00;;;4.40;;
59458;SDS011;45269;43.568;22.244;2023-09-12T01:36:34;6.80;;;4.50;;
59458;SDS011;45269;43.568;22.244;2023-09-12T01:38:59;8.77;;;4.60;;
59458;SDS011;45269;43.568;22.244;2023-09-12T01:41:25;6.25;;;5.00;;
59458;SDS011;45269;43.568;22.244;2023-09-12T01:43:51;7.63;;;4.80;;
59458;SDS011;45269;43.568;22.244;2023-09-12T01:46:17;6.70;;;4.80;;
59458;SDS011;45269;43.568;22.244;2023-09-12T01:48:43;5.22;;;4.55;;
59458;SDS011;45269;43.568;22.244;2023-09-12T01:51:09;5.28;;;4.47;;
59458;SDS011;45269;43.568;22.244;2023-09-12T01:53:34;5.90;;;4.75;;
59458;SDS011;45269;43.568;22.244;2023-09-12T01:56:01;7.85;;;5.25;;
59458;SDS011;45269;43.568;22.244;2023-09-12T01:58:26;6.30;;;4.50;;
59458;SDS011;45269;43.568;22.244;2023-09-12T02:00:51;4.80;;;4.40;;
59458;SDS011;45269;43.568;22.244;2023-09-12T02:03:17;5.60;;;4.50;;
59458;SDS011;45269;43.568;22.244;2023-09-12T02:05:42;5.93;;;4.63;;
59458;SDS011;45269;43.568;22.244;2023-09-12T02:08:08;5.88;;;4.40;;
59458;SDS011;45269;43.568;22.244;2023-09-12T02:10:33;6.13;;;5.15;;
59458;SDS011;45269;43.568;22.244;2023-09-12T02:12:58;8.70;;;4.68;;
59458;SDS011;45269;43.568;22.244;2023-09-12T02:15:24;6.03;;;5.32;;
59458;SDS011;45269;43.568;22.244;2023-09-12T02:17:49;7.88;;;4.90;;
59458;SDS011;45269;43.568;22.244;2023-09-12T02:20:17;5.90;;;4.90;;
59458;SDS011;45269;43.568;22.244;2023-09-12T02:22:44;5.95;;;4.53;;
59458;SDS011;45269;43.568;22.244;2023-09-12T02:25:10;6.88;;;4.68;;
59458;SDS011;45269;43.568;22.244;2023-09-12T02:27:35;6.70;;;4.68;;
59458;SDS011;45269;43.568;22.244;2023-09-12T02:30:01;5.22;;;4.32;;
59458;SDS011;45269;43.568;22.244;2023-09-12T02:32:27;4.93;;;4.47;;
59458;SDS011;45269;43.568;22.244;2023-09-12T02:34:53;5.60;;;4.55;;
59458;SDS011;45269;43.568;22.244;2023-09-12T02:37:19;6.03;;;4.20;;
59458;SDS011;45269;43.568;22.244;2023-09-12T02:39:44;5.55;;;4.40;;
59458;SDS011;45269;43.568;22.244;2023-09-12T02:42:09;5.38;;;4.30;;
59458;SDS011;45269;43.568;22.244;2023-09-12T02:44:36;4.95;;;4.28;;
59458;SDS011;45269;43.568;22.244;2023-09-12T02:47:02;5.55;;;4.70;;
59458;SDS011;45269;43.568;22.244;2023-09-12T02:49:28;6.57;;;4.50;;
59458;SDS011;45269;43.568;22.244;2023-09-12T02:51:53;5.68;;;4.55;;
59458;SDS011;45269;43.568;22.244;2023-09-12T02:54:18;6.10;;;4.75;;
59458;SDS011;45269;43.568;22.244;2023-09-12T02:56:44;5.03;;;4.53;;
59458;SDS011;45269;43.568;22.244;2023-09-12T02:59:09;5.43;;;4.90;;
59458;SDS011;45269;43.568;22.244;2023-09-12T03:01:34;6.82;;;4.70;;
59458;SDS011;45269;43.568;22.244;2023-09-12T03:04:00;6.50;;;4.60;;
59458;SDS011;45269;43.568;22.244;2023-09-12T03:06:25;7.20;;;4.15;;
59458;SDS011;45269;43.568;22.244;2023-09-12T03:08:51;8.73;;;5.10;;
59458;SDS011;45269;43.568;22.244;2023-09-12T03:11:16;6.25;;;4.78;;
59458;SDS011;45269;43.568;22.244;2023-09-12T03:13:41;4.93;;;4.38;;
59458;SDS011;45269;43.568;22.244;2023-09-12T03:16:13;5.18;;;4.65;;
59458;SDS011;45269;43.568;22.244;2023-09-12T03:18:39;5.63;;;4.75;;
59458;SDS011;45269;43.568;22.244;2023-09-12T03:21:04;4.63;;;4.22;;
59458;SDS011;45269;43.568;22.244;2023-09-12T03:23:30;9.90;;;4.38;;
59458;SDS011;45269;43.568;22.244;2023-09-12T03:25:59;7.18;;;4.70;;
59458;SDS011;45269;43.568;22.244;2023-09-12T03:28:24;7.47;;;4.78;;
59458;SDS011;45269;43.568;22.244;2023-09-12T03:30:50;5.05;;;4.35;;
59458;SDS011;45269;43.568;22.244;2023-09-12T03:33:15;5.35;;;4.60;;
59458;SDS011;45269;43.568;22.244;2023-09-12T03:35:42;5.72;;;4.60;;
59458;SDS011;45269;43.568;22.244;2023-09-12T03:38:08;6.28;;;4.72;;
59458;SDS011;45269;43.568;22.244;2023-09-12T03:40:33;7.85;;;5.18;;
59458;SDS011;45269;43.568;22.244;2023-09-12T03:42:58;7.88;;;5.20;;
59458;SDS011;45269;43.568;22.244;2023-09-12T03:45:24;10.10;;;5.38;;
59458;SDS011;45269;43.568;22.244;2023-09-12T03:47:49;8.70;;;4.82;;
59458;SDS011;45269;43.568;22.244;2023-09-12T03:50:14;6.68;;;5.07;;
59458;SDS011;45269;43.568;22.244;2023-09-12T03:52:40;6.07;;;5.10;;
59458;SDS011;45269;43.568;22.244;2023-09-12T03:55:05;8.82;;;5.75;;
59458;SDS011;45269;43.568;22.244;2023-09-12T03:57:31;6.07;;;5.28;;
59458;SDS011;45269;43.568;22.244;2023-09-12T03:59:56;8.85;;;5.75;;
59458;SDS011;45269;43.568;22.244;2023-09-12T04:02:22;7.68;;;5.25;;
59458;SDS011;45269;43.568;22.244;2023-09-12T04:04:47;7.57;;;5.30;;
59458;SDS011;45269;43.568;22.244;2023-09-12T04:07:12;6.20;;;4.80;;
59458;SDS011;45269;43.568;22.244;2023-09-12T04:09:38;7.13;;;5.20;;
59458;SDS011;45269;43.568;22.244;2023-09-12T04:12:03;8.43;;;5.53;;
59458;SDS011;45269;43.568;22.244;2023-09-12T04:14:29;7.38;;;5.53;;
59458;SDS011;45269;43.568;22.244;2023-09-12T04:16:54;9.25;;;5.55;;
59458;SDS011;45269;43.568;22.244;2023-09-12T04:19:19;7.20;;;4.97;;
59458;SDS011;45269;43.568;22.244;2023-09-12T04:21:45;7.05;;;5.05;;
59458;SDS011;45269;43.568;22.244;2023-09-12T04:24:10;6.68;;;4.85;;
59458;SDS011;45269;43.568;22.244;2023-09-12T04:26:36;10.52;;;5.75;;
59458;SDS011;45269;43.568;22.244;2023-09-12T04:29:01;7.22;;;5.50;;
59458;SDS011;45269;43.568;22.244;2023-09-12T04:31:26;9.05;;;5.82;;
59458;SDS011;45269;43.568;22.244;2023-09-12T04:33:52;9.18;;;7.82;;
59458;SDS011;45269;43.568;22.244;2023-09-12T04:36:17;8.75;;;7.13;;
59458;SDS011;45269;43.568;22.244;2023-09-12T04:38:43;8.65;;;5.60;;
59458;SDS011;45269;43.568;22.244;2023-09-12T04:41:11;7.20;;;6.18;;
59458;SDS011;45269;43.568;22.244;2023-09-12T04:43:39;6.20;;;5.60;;
59458;SDS011;45269;43.568;22.244;2023-09-12T04:46:04;6.70;;;5.43;;
59458;SDS011;45269;43.568;22.244;2023-09-12T04:48:30;14.73;;;6.40;;
59458;SDS011;45269;43.568;22.244;2023-09-12T04:50:55;10.35;;;6.43;;
59458;SDS011;45269;43.568;22.244;2023-09-12T04:53:21;7.63;;;5.93;;
59458;SDS011;45269;43.568;22.244;2023-09-12T04:55:46;6.10;;;5.43;;
59458;SDS011;45269;43.568;22.244;2023-09-12T04:58:12;6.18;;;5.05;;
59458;SDS011;45269;43.568;22.244;2023-09-12T05:00:38;10.95;;;5.57;;
59458;SDS011;45269;43.568;22.244;2023-09-12T05:03:04;9.30;;;4.97;;
59458;SDS011;45269;43.568;22.244;2023-09-12T05:05:29;6.47;;;5.18;;
59458;SDS011;45269;43.568;22.244;2023-09-12T05:07:54;6.05;;;5.22;;
59458;SDS011;45269;43.568;22.244;2023-09-12T05:10:20;5.07;;;4.60;;
59458;SDS011;45269;43.568;22.244;2023-09-12T05:12:45;8.20;;;5.45;;
59458;SDS011;45269;43.568;22.244;2023-09-12T05:15:11;6.88;;;5.50;;
59458;SDS011;45269;43.568;22.244;2023-09-12T05:17:36;6.38;;;5.03;;
59458;SDS011;45269;43.568;22.244;2023-09-12T05:20:02;10.70;;;5.63;;
59458;SDS011;45269;43.568;22.244;2023-09-12T05:22:27;7.78;;;4.70;;
59458;SDS011;45269;43.568;22.244;2023-09-12T05:24:53;7.72;;;5.07;;
59458;SDS011;45269;43.568;22.244;2023-09-12T05:27:19;5.93;;;5.22;;
59458;SDS011;45269;43.568;22.244;2023-09-12T05:29:44;6.57;;;5.20;;
59458;SDS011;45269;43.568;22.244;2023-09-12T05:32:09;5.20;;;4.70;;
59458;SDS011;45269;43.568;22.244;2023-09-12T05:34:35;7.95;;;5.00;;
59458;SDS011;45269;43.568;22.244;2023-09-12T05:37:00;7.15;;;5.30;;
59458;SDS011;45269;43.568;22.244;2023-09-12T05:39:25;8.52;;;5.45;;
59458;SDS011;45269;43.568;22.244;2023-09-12T05:41:51;9.00;;;6.80;;
59458;SDS011;45269;43.568;22.244;2023-09-12T05:44:16;7.40;;;6.10;;
59458;SDS011;45269;43.568;22.244;2023-09-12T05:46:44;11.27;;;5.90;;
59458;SDS011;45269;43.568;22.244;2023-09-12T05:49:10;6.20;;;5.60;;
59458;SDS011;45269;43.568;22.244;2023-09-12T05:51:35;7.07;;;5.20;;
59458;SDS011;45269;43.568;22.244;2023-09-12T05:54:01;10.27;;;5.45;;
59458;SDS011;45269;43.568;22.244;2023-09-12T05:56:26;7.47;;;4.97;;
59458;SDS011;45269;43.568;22.244;2023-09-12T05:58:53;9.38;;;5.05;;
59458;SDS011;45269;43.568;22.244;2023-09-12T06:01:18;7.05;;;4.85;;
59458;SDS011;45269;43.568;22.244;2023-09-12T06:03:43;8.30;;;5.13;;
59458;SDS011;45269;43.568;22.244;2023-09-12T06:06:09;7.05;;;4.68;;
59458;SDS011;45269;43.568;22.244;2023-09-12T06:08:34;8.18;;;4.20;;
59458;SDS011;45269;43.568;22.244;2023-09-12T06:11:00;10.02;;;4.93;;
59458;SDS011;45269;43.568;22.244;2023-09-12T06:13:25;9.02;;;5.20;;
59458;SDS011;45269;43.568;22.244;2023-09-12T06:15:50;6.72;;;4.93;;
59458;SDS011;45269;43.568;22.244;2023-09-12T06:18:16;9.60;;;5.80;;
59458;SDS011;45269;43.568;22.244;2023-09-12T06:20:41;5.60;;;4.88;;
59458;SDS011;45269;43.568;22.244;2023-09-12T06:23:07;6.05;;;5.07;;
59458;SDS011;45269;43.568;22.244;2023-09-12T06:25:32;6.97;;;4.88;;
59458;SDS011;45269;43.568;22.244;2023-09-12T06:27:59;7.43;;;4.85;;
59458;SDS011;45269;43.568;22.244;2023-09-12T06:30:24;8.95;;;4.80;;
59458;SDS011;45269;43.568;22.244;2023-09-12T06:32:49;7.85;;;4.88;;
59458;SDS011;45269;43.568;22.244;2023-09-12T06:35:15;8.23;;;4.43;;
59458;SDS011;45269;43.568;22.244;2023-09-12T06:37:40;8.07;;;4.95;;
59458;SDS011;45269;43.568;22.244;2023-09-12T06:40:06;6.75;;;4.45;;
59458;SDS011;45269;43.568;22.244;2023-09-12T06:42:32;7.18;;;3.95;;
59458;SDS011;45269;43.568;22.244;2023-09-12T06:44:57;6.55;;;3.97;;
59458;SDS011;45269;43.568;22.244;2023-09-12T06:47:22;13.25;;;4.28;;
59458;SDS011;45269;43.568;22.244;2023-09-12T06:49:48;4.70;;;3.95;;
59458;SDS011;45269;43.568;22.244;2023-09-12T06:52:13;9.43;;;4.53;;
59458;SDS011;45269;43.568;22.244;2023-09-12T06:54:38;8.30;;;4.75;;
59458;SDS011;45269;43.568;22.244;2023-09-12T06:57:04;6.60;;;4.47;;
59458;SDS011;45269;43.568;22.244;2023-09-12T06:59:29;4.70;;;3.63;;
59458;SDS011;45269;43.568;22.244;2023-09-12T07:01:55;7.95;;;3.20;;
59458;SDS011;45269;43.568;22.244;2023-09-12T07:04:20;7.18;;;3.80;;
59458;SDS011;45269;43.568;22.244;2023-09-12T07:06:46;6.03;;;3.85;;
59458;SDS011;45269;43.568;22.244;2023-09-12T07:09:11;5.85;;;4.45;;
59458;SDS011;45269;43.568;22.244;2023-09-12T07:11:39;8.98;;;4.45;;
59458;SDS011;45269;43.568;22.244;2023-09-12T07:14:04;9.73;;;5.75;;
59458;SDS011;45269;43.568;22.244;2023-09-12T07:16:30;7.43;;;4.75;;
59458;SDS011;45269;43.568;22.244;2023-09-12T07:18:56;4.93;;;3.50;;
59458;SDS011;45269;43.568;22.244;2023-09-12T07:21:22;5.82;;;2.85;;
59458;SDS011;45269;43.568;22.244;2023-09-12T07:23:47;4.72;;;3.20;;
59458;SDS011;45269;43.568;22.244;2023-09-12T07:26:13;7.53;;;4.10;;
59458;SDS011;45269;43.568;22.244;2023-09-12T07:28:39;5.75;;;2.88;;
59458;SDS011;45269;43.568;22.244;2023-09-12T07:31:04;7.03;;;3.08;;
59458;SDS011;45269;43.568;22.244;2023-09-12T07:33:29;5.72;;;2.60;;
59458;SDS011;45269;43.568;22.244;2023-09-12T07:35:55;5.25;;;3.33;;
59458;SDS011;45269;43.568;22.244;2023-09-12T07:38:20;8.77;;;4.32;;
59458;SDS011;45269;43.568;22.244;2023-09-12T07:40:46;10.63;;;7.53;;
59458;SDS011;45269;43.568;22.244;2023-09-12T07:43:11;9.43;;;3.40;;
59458;SDS011;45269;43.568;22.244;2023-09-12T07:45:37;7.60;;;3.42;;
59458;SDS011;45269;43.568;22.244;2023-09-12T07:48:06;5.10;;;2.80;;
59458;SDS011;45269;43.568;22.244;2023-09-12T07:50:32;4.00;;;2.47;;
59458;SDS011;45269;43.568;22.244;2023-09-12T07:52:57;5.30;;;2.63;;
59458;SDS011;45269;43.568;22.244;2023-09-12T07:55:22;5.00;;;3.40;;
59458;SDS011;45269;43.568;22.244;2023-09-12T07:57:48;6.10;;;3.05;;
59458;SDS011;45269;43.568;22.244;2023-09-12T08:00:13;11.60;;;7.10;;
59458;SDS011;45269;43.568;22.244;2023-09-12T08:02:38;7.50;;;3.58;;
59458;SDS011;45269;43.568;22.244;2023-09-12T08:05:04;3.70;;;2.72;;
59458;SDS011;45269;43.568;22.244;2023-09-12T08:07:30;9.50;;;3.60;;
59458;SDS011;45269;43.568;22.244;2023-09-12T08:09:56;15.10;;;8.80;;
59458;SDS011;45269;43.568;22.244;2023-09-12T08:12:25;9.35;;;5.90;;
59458;SDS011;45269;43.568;22.244;2023-09-12T08:14:51;4.32;;;3.75;;
59458;SDS011;45269;43.568;22.244;2023-09-12T08:17:17;4.60;;;3.40;;
59458;SDS011;45269;43.568;22.244;2023-09-12T08:19:42;4.43;;;3.15;;
59458;SDS011;45269;43.568;22.244;2023-09-12T08:22:08;6.70;;;2.50;;
59458;SDS011;45269;43.568;22.244;2023-09-12T08:24:34;4.75;;;2.63;;
59458;SDS011;45269;43.568;22.244;2023-09-12T08:27:00;7.22;;;2.80;;
59458;SDS011;45269;43.568;22.244;2023-09-12T08:29:27;6.93;;;2.88;;
59458;SDS011;45269;43.568;22.244;2023-09-12T08:31:53;4.07;;;2.88;;
59458;SDS011;45269;43.568;22.244;2023-09-12T08:34:18;4.47;;;2.70;;
59458;SDS011;45269;43.568;22.244;2023-09-12T08:36:43;5.32;;;2.95;;
59458;SDS011;45269;43.568;22.244;2023-09-12T08:39:11;3.30;;;2.42;;
59458;SDS011;45269;43.568;22.244;2023-09-12T08:41:36;5.90;;;2.85;;
59458;SDS011;45269;43.568;22.244;2023-09-12T08:44:02;2.65;;;2.45;;
59458;SDS011;45269;43.568;22.244;2023-09-12T08:46:30;6.15;;;3.42;;
59458;SDS011;45269;43.568;22.244;2023-09-12T08:48:56;9.90;;;5.72;;
59458;SDS011;45269;43.568;22.244;2023-09-12T08:51:22;6.55;;;4.68;;
59458;SDS011;45269;43.568;22.244;2023-09-12T08:53:48;6.20;;;3.65;;
59458;SDS011;45269;43.568;22.244;2023-09-12T08:56:14;9.25;;;6.95;;
59458;SDS011;45269;43.568;22.244;2023-09-12T08:58:39;9.98;;;5.13;;
59458;SDS011;45269;43.568;22.244;2023-09-12T09:01:06;6.60;;;4.80;;
59458;SDS011;45269;43.568;22.244;2023-09-12T09:03:31;6.63;;;3.55;;
59458;SDS011;45269;43.568;22.244;2023-09-12T09:05:57;7.55;;;2.85;;
59458;SDS011;45269;43.568;22.244;2023-09-12T09:08:23;4.93;;;2.83;;
59458;SDS011;45269;43.568;22.244;2023-09-12T09:10:55;4.05;;;2.70;;
59458;SDS011;45269;43.568;22.244;2023-09-12T09:13:20;4.68;;;2.60;;
59458;SDS011;45269;43.568;22.244;2023-09-12T09:15:46;5.82;;;2.78;;
59458;SDS011;45269;43.568;22.244;2023-09-12T09:18:12;3.38;;;2.85;;
59458;SDS011;45269;43.568;22.244;2023-09-12T09:20:37;5.32;;;2.90;;
59458;SDS011;45269;43.568;22.244;2023-09-12T09:23:07;5.38;;;2.95;;
59458;SDS011;45269;43.568;22.244;2023-09-12T09:25:36;4.93;;;2.60;;
59458;SDS011;45269;43.568;22.244;2023-09-12T09:28:04;3.13;;;2.70;;
59458;SDS011;45269;43.568;22.244;2023-09-12T09:30:40;4.30;;;2.83;;
59458;SDS011;45269;43.568;22.244;2023-09-12T09:33:06;4.80;;;2.63;;
59458;SDS011;45269;43.568;22.244;2023-09-12T09:35:31;2.97;;;2.45;;
59458;SDS011;45269;43.568;22.244;2023-09-12T09:37:56;2.80;;;2.17;;
59458;SDS011;45269;43.568;22.244;2023-09-12T09:40:22;4.63;;;2.28;;
59458;SDS011;45269;43.568;22.244;2023-09-12T09:42:52;3.60;;;2.53;;
59458;SDS011;45269;43.568;22.244;2023-09-12T09:45:18;3.90;;;2.65;;
59458;SDS011;45269;43.568;22.244;2023-09-12T09:47:43;5.03;;;2.50;;
59458;SDS011;45269;43.568;22.244;2023-09-12T09:50:11;7.00;;;2.67;;
59458;SDS011;45269;43.568;22.244;2023-09-12T09:52:38;4.25;;;3.53;;
59458;SDS011;45269;43.568;22.244;2023-09-12T09:55:06;8.63;;;2.70;;
59458;SDS011;45269;43.568;22.244;2023-09-12T09:57:36;5.32;;;2.78;;
59458;SDS011;45269;43.568;22.244;2023-09-12T10:00:01;3.47;;;2.40;;
59458;SDS011;45269;43.568;22.244;2023-09-12T10:02:33;3.53;;;2.47;;
59458;SDS011;45269;43.568;22.244;2023-09-12T10:04:59;3.00;;;2.20;;
59458;SDS011;45269;43.568;22.244;2023-09-12T10:07:25;6.20;;;2.85;;
59458;SDS011;45269;43.568;22.244;2023-09-12T10:09:52;6.35;;;2.50;;
59458;SDS011;45269;43.568;22.244;2023-09-12T10:12:17;7.40;;;2.40;;
59458;SDS011;45269;43.568;22.244;2023-09-12T10:14:43;3.95;;;2.58;;
59458;SDS011;45269;43.568;22.244;2023-09-12T10:17:08;5.43;;;2.70;;
59458;SDS011;45269;43.568;22.244;2023-09-12T10:19:38;6.32;;;2.60;;
59458;SDS011;45269;43.568;22.244;2023-09-12T10:24:29;6.77;;;2.70;;
59458;SDS011;45269;43.568;22.244;2023-09-12T10:26:55;3.05;;;2.30;;
59458;SDS011;45269;43.568;22.244;2023-09-12T10:29:20;5.85;;;2.40;;
59458;SDS011;45269;43.568;22.244;2023-09-12T10:31:47;6.35;;;2.65;;
59458;SDS011;45269;43.568;22.244;2023-09-12T10:34:13;6.25;;;3.10;;
59458;SDS011;45269;43.568;22.244;2023-09-12T10:36:39;4.03;;;2.45;;
59458;SDS011;45269;43.568;22.244;2023-09-12T10:39:06;6.90;;;4.55;;
59458;SDS011;45269;43.568;22.244;2023-09-12T10:41:31;7.32;;;2.83;;
59458;SDS011;45269;43.568;22.244;2023-09-12T10:43:57;7.75;;;2.45;;
59458;SDS011;45269;43.568;22.244;2023-09-12T10:46:23;4.10;;;2.33;;
59458;SDS011;45269;43.568;22.244;2023-09-12T10:48:49;4.18;;;2.60;;
59458;SDS011;45269;43.568;22.244;2023-09-12T10:51:15;4.95;;;2.53;;
59458;SDS011;45269;43.568;22.244;2023-09-12T10:53:48;4.32;;;2.90;;
59458;SDS011;45269;43.568;22.244;2023-09-12T10:56:19;5.47;;;2.75;;
59458;SDS011;45269;43.568;22.244;2023-09-12T11:01:32;3.92;;;2.50;;
59458;SDS011;45269;43.568;22.244;2023-09-12T11:03:57;4.38;;;2.70;;
59458;SDS011;45269;43.568;22.244;2023-09-12T11:06:27;6.10;;;2.60;;
59458;SDS011;45269;43.568;22.244;2023-09-12T11:11:37;5.82;;;2.67;;
59458;SDS011;45269;43.568;22.244;2023-09-12T11:14:03;4.30;;;2.50;;
59458;SDS011;45269;43.568;22.244;2023-09-12T11:16:29;3.03;;;2.50;;
59458;SDS011;45269;43.568;22.244;2023-09-12T11:19:13;7.93;;;2.95;;
59458;SDS011;45269;43.568;22.244;2023-09-12T11:21:39;4.72;;;3.10;;
59458;SDS011;45269;43.568;22.244;2023-09-12T11:24:05;5.30;;;2.75;;
59458;SDS011;45269;43.568;22.244;2023-09-12T11:26:30;4.18;;;2.75;;
59458;SDS011;45269;43.568;22.244;2023-09-12T11:28:56;4.15;;;2.30;;
59458;SDS011;45269;43.568;22.244;2023-09-12T11:31:27;3.80;;;2.75;;
59458;SDS011;45269;43.568;22.244;2023-09-12T11:33:53;6.45;;;2.72;;
59458;SDS011;45269;43.568;22.244;2023-09-12T11:36:19;3.53;;;2.45;;
59458;SDS011;45269;43.568;22.244;2023-09-12T11:38:44;4.60;;;2.70;;
59458;SDS011;45269;43.568;22.244;2023-09-12T11:41:14;6.15;;;2.75;;
59458;SDS011;45269;43.568;22.244;2023-09-12T11:43:40;4.97;;;2.90;;
59458;SDS011;45269;43.568;22.244;2023-09-12T11:46:06;3.38;;;2.35;;
59458;SDS011;45269;43.568;22.244;2023-09-12T11:48:33;5.22;;;2.78;;
59458;SDS011;45269;43.568;22.244;2023-09-12T11:50:58;11.30;;;3.20;;
59458;SDS011;45269;43.568;22.244;2023-09-12T11:53:28;5.22;;;2.22;;
59458;SDS011;45269;43.568;22.244;2023-09-12T11:55:59;5.18;;;3.47;;
59458;SDS011;45269;43.568;22.244;2023-09-12T11:58:24;7.30;;;2.55;;
59458;SDS011;45269;43.568;22.244;2023-09-12T12:00:51;4.85;;;2.70;;
59458;SDS011;45269;43.568;22.244;2023-09-12T12:03:22;3.45;;;2.55;;
59458;SDS011;45269;43.568;22.244;2023-09-12T12:05:48;3.75;;;2.50;;
59458;SDS011;45269;43.568;22.244;2023-09-12T12:08:14;6.28;;;3.20;;
59458;SDS011;45269;43.568;22.244;2023-09-12T12:10:39;3.63;;;2.65;;
59458;SDS011;45269;43.568;22.244;2023-09-12T12:13:06;4.28;;;2.70;;
59458;SDS011;45269;43.568;22.244;2023-09-12T12:15:33;4.25;;;2.50;;
59458;SDS011;45269;43.568;22.244;2023-09-12T12:17:58;6.28;;;2.95;;
59458;SDS011;45269;43.568;22.244;2023-09-12T12:20:23;5.40;;;3.05;;
59458;SDS011;45269;43.568;22.244;2023-09-12T12:22:49;3.72;;;2.40;;
59458;SDS011;45269;43.568;22.244;2023-09-12T12:25:17;4.32;;;2.70;;
59458;SDS011;45269;43.568;22.244;2023-09-12T12:27:42;3.58;;;2.20;;
59458;SDS011;45269;43.568;22.244;2023-09-12T12:30:09;3.03;;;2.17;;
59458;SDS011;45269;43.568;22.244;2023-09-12T12:32:44;4.40;;;2.60;;
59458;SDS011;45269;43.568;22.244;2023-09-12T12:35:21;6.40;;;2.65;;
59458;SDS011;45269;43.568;22.244;2023-09-12T12:37:49;4.95;;;2.60;;
59458;SDS011;45269;43.568;22.244;2023-09-12T12:40:15;4.47;;;2.80;;
59458;SDS011;45269;43.568;22.244;2023-09-12T12:42:42;4.78;;;2.50;;
59458;SDS011;45269;43.568;22.244;2023-09-12T12:45:11;7.28;;;2.90;;
59458;SDS011;45269;43.568;22.244;2023-09-12T12:47:36;5.65;;;2.95;;
59458;SDS011;45269;43.568;22.244;2023-09-12T12:50:01;7.85;;;3.20;;
59458;SDS011;45269;43.568;22.244;2023-09-12T12:52:27;4.03;;;2.75;;
59458;SDS011;45269;43.568;22.244;2023-09-12T12:54:52;3.20;;;2.40;;
59458;SDS011;45269;43.568;22.244;2023-09-12T12:57:19;5.68;;;2.60;;
59458;SDS011;45269;43.568;22.244;2023-09-12T12:59:45;3.85;;;2.50;;
59458;SDS011;45269;43.568;22.244;2023-09-12T13:02:11;3.83;;;2.60;;
59458;SDS011;45269;43.568;22.244;2023-09-12T13:04:36;6.78;;;2.60;;
59458;SDS011;45269;43.568;22.244;2023-09-12T13:07:03;3.92;;;2.40;;
59458;SDS011;45269;43.568;22.244;2023-09-12T13:09:28;3.58;;;2.60;;
59458;SDS011;45269;43.568;22.244;2023-09-12T13:11:53;7.03;;;2.53;;
59458;SDS011;45269;43.568;22.244;2023-09-12T13:14:19;7.03;;;2.72;;
59458;SDS011;45269;43.568;22.244;2023-09-12T13:16:44;6.20;;;2.83;;
59458;SDS011;45269;43.568;22.244;2023-09-12T13:19:10;5.47;;;2.70;;
59458;SDS011;45269;43.568;22.244;2023-09-12T13:24:04;5.80;;;2.78;;
59458;SDS011;45269;43.568;22.244;2023-09-12T13:26:29;4.57;;;2.47;;
59458;SDS011;45269;43.568;22.244;2023-09-12T13:28:54;6.22;;;2.60;;
59458;SDS011;45269;43.568;22.244;2023-09-12T13:31:20;6.47;;;2.55;;
59458;SDS011;45269;43.568;22.244;2023-09-12T13:33:45;8.20;;;3.03;;
59458;SDS011;45269;43.568;22.244;2023-09-12T13:36:10;5.18;;;2.65;;
59458;SDS011;45269;43.568;22.244;2023-09-12T13:38:36;3.50;;;2.63;;
59458;SDS011;45269;43.568;22.244;2023-09-12T13:41:01;7.00;;;2.78;;
59458;SDS011;45269;43.568;22.244;2023-09-12T13:43:26;3.70;;;2.30;;
59458;SDS011;45269;43.568;22.244;2023-09-12T13:45:53;4.45;;;2.67;;
59458;SDS011;45269;43.568;22.244;2023-09-12T13:48:18;6.28;;;2.75;;
59458;SDS011;45269;43.568;22.244;2023-09-12T13:50:44;4.93;;;2.58;;
59458;SDS011;45269;43.568;22.244;2023-09-12T13:53:09;4.38;;;2.50;;
59458;SDS011;45269;43.568;22.244;2023-09-12T13:55:35;4.03;;;2.90;;
59458;SDS011;45269;43.568;22.244;2023-09-12T13:58:01;6.40;;;2.60;;
59458;SDS011;45269;43.568;22.244;2023-09-12T14:00:27;6.32;;;2.95;;
59458;SDS011;45269;43.568;22.244;2023-09-12T14:02:52;5.50;;;2.40;;
59458;SDS011;45269;43.568;22.244;2023-09-12T14:05:18;4.95;;;2.85;;
59458;SDS011;45269;43.568;22.244;2023-09-12T14:07:43;3.58;;;2.35;;
59458;SDS011;45269;43.568;22.244;2023-09-12T14:10:09;5.63;;;2.67;;
59458;SDS011;45269;43.568;22.244;2023-09-12T14:12:34;5.28;;;2.45;;
59458;SDS011;45269;43.568;22.244;2023-09-12T14:15:00;3.80;;;2.42;;
59458;SDS011;45269;43.568;22.244;2023-09-12T14:17:25;3.25;;;2.22;;
59458;SDS011;45269;43.568;22.244;2023-09-12T14:19:52;6.25;;;2.88;;
59458;SDS011;45269;43.568;22.244;2023-09-12T14:22:17;4.65;;;2.55;;
59458;SDS011;45269;43.568;22.244;2023-09-12T14:24:42;5.18;;;2.70;;
59458;SDS011;45269;43.568;22.244;2023-09-12T14:27:08;5.00;;;2.60;;
59458;SDS011;45269;43.568;22.244;2023-09-12T14:29:33;4.78;;;2.65;;
59458;SDS011;45269;43.568;22.244;2023-09-12T14:31:58;4.90;;;2.50;;
59458;SDS011;45269;43.568;22.244;2023-09-12T14:34:24;6.07;;;2.63;;
59458;SDS011;45269;43.568;22.244;2023-09-12T14:39:17;4.73;;;2.90;;
59458;SDS011;45269;43.568;22.244;2023-09-12T14:41:42;3.97;;;2.70;;
59458;SDS011;45269;43.568;22.244;2023-09-12T14:44:09;4.22;;;2.53;;